< < Back
Terminal Aerodrome Forecast


Current Version              Previous Versions:   1  2  3  4  5  6  7  8  9  

Terminal Aerodrome Forecast

836
FTUS42 KTAE 212332
TAFTLH
TAF
KTLH 212332Z 2200/2224 34006KT P6SM SCT250
     FM221200 02007KT P6SM SKC=



Latest METAR

388
SAUS80 KWBC 221900 RRA
MTRTLH
METAR KTLH 221853Z 36008KT 10SM SCT250 29/13 A3013 RMK AO2 SLP201
T02940128


USA.gov is the U.S. government's official web portal to all federal, state and local government web resources and services.